createdAt,value
2018-04-18T00:00:50.187Z,10.71
2018-04-18T00:01:57.745Z,10.72
2018-04-18T00:03:04.123Z,10.56
2018-04-18T00:04:10.448Z,10.46
2018-04-18T00:05:18.407Z,10.42
2018-04-18T00:06:24.388Z,10.31
2018-04-18T00:07:35.754Z,10.15
2018-04-18T00:08:42.060Z,10.06
2018-04-18T00:09:48.319Z,9.99
2018-04-18T00:10:54.348Z,10.12
2018-04-18T00:12:00.258Z,10.22
2018-04-18T00:13:06.564Z,10.29
2018-04-18T00:14:12.891Z,10.30
2018-04-18T00:15:19.159Z,10.31
2018-04-18T00:16:29.470Z,10.32
2018-04-18T00:17:35.806Z,10.25
2018-04-18T00:18:42.187Z,10.29
2018-04-18T00:19:48.411Z,10.37
2018-04-18T00:20:54.761Z,10.44
2018-04-18T00:22:01.048Z,10.45
2018-04-18T00:23:07.971Z,10.47
2018-04-18T00:24:14.287Z,10.37
2018-04-18T00:25:20.584Z,10.38
2018-04-18T00:26:26.562Z,10.37
2018-04-18T00:27:33.153Z,10.40
2018-04-18T00:28:39.389Z,10.44
2018-04-18T00:29:45.658Z,10.49
2018-04-18T00:30:51.982Z,10.49
2018-04-18T00:31:57.933Z,10.42
2018-04-18T00:33:04.246Z,10.38
2018-04-18T00:34:10.579Z,10.37
2018-04-18T00:35:17.828Z,10.23
2018-04-18T00:36:25.916Z,10.22
2018-04-18T00:37:33.273Z,10.16
2018-04-18T00:38:39.515Z,10.15
2018-04-18T00:39:45.833Z,10.06
2018-04-18T00:40:52.170Z,9.92
2018-04-18T00:41:58.636Z,9.95
2018-04-18T00:43:05.761Z,9.97
2018-04-18T00:44:11.853Z,9.93
2018-04-18T00:45:18.327Z,9.96
2018-04-18T00:46:24.429Z,9.94
2018-04-18T00:47:30.811Z,9.84
2018-04-18T00:48:37.074Z,9.92
2018-04-18T00:49:43.481Z,9.83
2018-04-18T00:50:49.796Z,9.86
2018-04-18T00:51:58.291Z,9.93
2018-04-18T00:53:05.982Z,9.94
2018-04-18T00:54:12.297Z,10.00
2018-04-18T00:55:18.907Z,10.01
2018-04-18T00:56:25.188Z,9.99
2018-04-18T00:57:31.713Z,9.96
2018-04-18T00:58:38.031Z,9.86
2018-04-18T00:59:50.158Z,9.88
2018-04-18T01:00:56.950Z,9.81
2018-04-18T01:02:05.068Z,9.72
2018-04-18T01:03:11.348Z,9.68
2018-04-18T01:04:17.718Z,9.73
2018-04-18T01:05:23.938Z,9.70
2018-04-18T01:06:30.166Z,9.61
2018-04-18T01:07:38.351Z,9.73
2018-04-18T01:08:48.247Z,9.71
2018-04-18T01:09:55.561Z,9.68
2018-04-18T01:11:01.466Z,9.60
2018-04-18T01:12:07.730Z,9.59
2018-04-18T01:13:13.743Z,9.54
2018-04-18T01:14:19.457Z,9.42
2018-04-18T01:15:26.030Z,9.49
2018-04-18T01:16:32.325Z,9.41
2018-04-18T01:17:38.634Z,9.41
2018-04-18T01:18:45.040Z,9.47
2018-04-18T01:19:51.545Z,9.41
2018-04-18T01:20:58.205Z,9.52
2018-04-18T01:22:04.472Z,9.62
2018-04-18T01:23:11.848Z,9.71
2018-04-18T01:24:19.988Z,9.78
2018-04-18T01:25:26.340Z,9.75
2018-04-18T01:26:32.596Z,9.75
2018-04-18T01:27:38.907Z,9.70
2018-04-18T01:28:44.889Z,9.67
2018-04-18T01:29:51.289Z,9.62
2018-04-18T01:30:57.554Z,9.66
2018-04-18T01:32:03.780Z,9.62
2018-04-18T01:33:09.498Z,9.65
2018-04-18T01:34:16.872Z,9.58
2018-04-18T01:35:23.749Z,9.52
2018-04-18T01:36:29.987Z,9.55
2018-04-18T01:37:37.147Z,9.60
2018-04-18T01:38:45.052Z,9.61
2018-04-18T01:39:53.895Z,9.52
2018-04-18T01:41:00.278Z,9.55
2018-04-18T01:42:06.258Z,9.53
2018-04-18T01:43:12.472Z,9.42
2018-04-18T01:44:18.472Z,9.41
2018-04-18T01:45:24.511Z,9.33
2018-04-18T01:46:30.920Z,9.27
2018-04-18T01:47:37.255Z,9.23
2018-04-18T01:48:43.527Z,9.17
2018-04-18T01:49:49.589Z,9.08
2018-04-18T01:50:55.569Z,8.97
2018-04-18T01:52:01.567Z,8.90
2018-04-18T01:53:08.590Z,8.90
2018-04-18T01:54:14.969Z,8.93
2018-04-18T01:55:22.122Z,8.86
2018-04-18T01:56:28.399Z,8.79
2018-04-18T01:57:35.163Z,8.70
2018-04-18T01:58:41.447Z,8.74
2018-04-18T01:59:47.414Z,8.78
2018-04-18T02:00:53.526Z,8.86
2018-04-18T02:02:00.600Z,8.95
2018-04-18T02:03:06.822Z,8.90
2018-04-18T02:04:13.174Z,8.99
2018-04-18T02:05:19.658Z,9.08
2018-04-18T02:06:25.632Z,9.05
2018-04-18T02:07:31.997Z,9.09
2018-04-18T02:08:39.004Z,8.96
2018-04-18T02:09:45.312Z,9.01
2018-04-18T02:10:51.642Z,8.99
2018-04-18T02:11:58.875Z,8.89
2018-04-18T02:13:05.054Z,8.92
2018-04-18T02:14:11.265Z,9.00
2018-04-18T02:15:17.622Z,9.04
2018-04-18T02:16:24.431Z,9.14
2018-04-18T02:17:30.712Z,9.27
2018-04-18T02:18:37.067Z,9.33
2018-04-18T02:19:43.380Z,9.40
2018-04-18T02:20:49.672Z,9.43
2018-04-18T02:21:55.975Z,9.43
2018-04-18T02:23:02.033Z,9.34
2018-04-18T02:24:08.407Z,9.17
2018-04-18T02:25:14.725Z,9.11
2018-04-18T02:26:23.754Z,9.14
2018-04-18T02:27:29.975Z,9.12
2018-04-18T02:28:40.853Z,9.06
2018-04-18T02:29:49.958Z,8.95
2018-04-18T02:30:56.353Z,8.87
2018-04-18T02:32:02.392Z,8.95
2018-04-18T02:33:08.652Z,9.02
2018-04-18T02:34:14.731Z,9.02
2018-04-18T02:35:20.815Z,9.01
2018-04-18T02:36:27.610Z,8.95
2018-04-18T02:37:33.862Z,8.80
2018-04-18T02:38:40.171Z,8.71
2018-04-18T02:39:47.083Z,8.72
2018-04-18T02:40:53.123Z,8.76
2018-04-18T02:42:00.166Z,8.75
2018-04-18T02:43:06.567Z,8.72
2018-04-18T02:44:12.841Z,8.79
2018-04-18T02:45:19.114Z,8.86
2018-04-18T02:46:25.523Z,8.75
2018-04-18T02:47:31.759Z,8.66
2018-04-18T02:48:38.008Z,8.61
2018-04-18T02:49:44.557Z,8.68
2018-04-18T02:50:51.666Z,8.70
2018-04-18T02:51:59.281Z,8.63
2018-04-18T02:53:06.723Z,8.62
2018-04-18T02:54:14.354Z,8.49
2018-04-18T02:55:21.591Z,8.50
2018-04-18T02:56:29.186Z,8.45
2018-04-18T02:57:35.533Z,8.50
2018-04-18T02:58:41.912Z,8.61
2018-04-18T02:59:48.502Z,8.70
2018-04-18T03:00:54.708Z,8.73
2018-04-18T03:02:02.570Z,8.80
2018-04-18T03:03:13.815Z,8.86
2018-04-18T03:04:20.130Z,8.91
2018-04-18T03:05:26.405Z,9.00
2018-04-18T03:06:32.718Z,9.04
2018-04-18T03:07:39.596Z,8.92
2018-04-18T03:08:46.420Z,8.89
2018-04-18T03:09:53.313Z,8.91
2018-04-18T03:11:00.145Z,8.94
2018-04-18T03:12:06.418Z,8.88
2018-04-18T03:13:12.678Z,8.92
2018-04-18T03:14:20.146Z,8.94
2018-04-18T03:15:27.146Z,8.91
2018-04-18T03:16:34.182Z,8.87
2018-04-18T03:17:41.073Z,8.89
2018-04-18T03:18:48.264Z,8.88
2018-04-18T03:19:55.161Z,8.72
2018-04-18T03:21:02.569Z,8.67
2018-04-18T03:22:10.123Z,8.75
2018-04-18T03:23:16.638Z,8.70
2018-04-18T03:24:25.201Z,8.71
2018-04-18T03:25:53.163Z,8.81
2018-04-18T03:26:59.979Z,8.76
2018-04-18T03:28:06.963Z,8.81
2018-04-18T03:29:14.118Z,8.79
2018-04-18T03:30:21.044Z,8.82
2018-04-18T03:31:28.769Z,8.85
2018-04-18T03:32:36.812Z,8.83
2018-04-18T03:33:43.546Z,8.84
2018-04-18T03:34:50.459Z,8.84
2018-04-18T03:35:57.827Z,8.81
2018-04-18T03:37:04.932Z,8.75
2018-04-18T03:38:12.707Z,8.73
2018-04-18T03:39:20.575Z,8.68
2018-04-18T03:40:27.765Z,8.63
2018-04-18T03:41:34.751Z,8.66
2018-04-18T03:42:42.033Z,8.67
2018-04-18T03:43:49.248Z,8.68
2018-04-18T03:44:56.270Z,8.65
2018-04-18T03:46:03.463Z,8.56
2018-04-18T03:47:10.634Z,8.56
2018-04-18T03:48:17.934Z,8.52
2018-04-18T03:49:25.628Z,8.57
2018-04-18T03:50:33.596Z,8.59
2018-04-18T03:51:40.828Z,8.62
2018-04-18T03:52:48.316Z,8.65
2018-04-18T03:53:58.273Z,8.60
2018-04-18T03:55:05.152Z,8.60
2018-04-18T03:56:12.393Z,8.50
2018-04-18T03:57:19.775Z,8.51
2018-04-18T03:58:26.884Z,8.45
2018-04-18T03:59:34.065Z,8.55
2018-04-18T04:00:40.356Z,8.59
2018-04-18T04:01:48.349Z,8.54
2018-04-18T04:02:54.606Z,8.48
2018-04-18T04:04:01.098Z,8.51
2018-04-18T04:05:07.335Z,8.48
2018-04-18T04:06:13.568Z,8.52
2018-04-18T04:07:19.832Z,8.49
2018-04-18T04:08:26.156Z,8.56
2018-04-18T04:09:37.132Z,8.54
2018-04-18T04:10:44.681Z,8.58
2018-04-18T04:11:50.943Z,8.62
2018-04-18T04:12:57.327Z,8.65
2018-04-18T04:14:03.411Z,8.57
2018-04-18T04:15:10.277Z,8.63
2018-04-18T04:16:27.666Z,8.68
2018-04-18T04:17:45.056Z,8.72
2018-04-18T04:19:02.215Z,8.62
2018-04-18T04:20:19.119Z,8.59
2018-04-18T04:23:19.542Z,8.50
2018-04-18T04:24:51.448Z,8.40
2018-04-18T04:25:58.182Z,8.41
2018-04-18T04:27:04.486Z,8.41
2018-04-18T04:28:10.774Z,8.41
2018-04-18T04:29:17.062Z,8.44
2018-04-18T04:30:23.344Z,8.43
2018-04-18T04:31:29.804Z,8.38
2018-04-18T04:32:36.100Z,8.38
2018-04-18T04:33:42.178Z,8.30
2018-04-18T04:34:48.203Z,8.13
2018-04-18T04:35:54.534Z,8.04
2018-04-18T04:37:00.816Z,8.02
2018-04-18T04:38:07.255Z,8.02
2018-04-18T04:39:13.588Z,8.10
2018-04-18T04:40:19.879Z,8.17
2018-04-18T04:41:26.363Z,8.10
2018-04-18T04:42:33.335Z,8.04
2018-04-18T04:43:39.639Z,8.15
2018-04-18T04:44:45.971Z,8.23
2018-04-18T04:45:53.904Z,8.21
2018-04-18T04:47:00.121Z,8.27
2018-04-18T04:48:06.416Z,8.38
2018-04-18T04:49:12.647Z,8.49
2018-04-18T04:50:19.628Z,8.57
2018-04-18T04:51:25.664Z,8.61
2018-04-18T04:52:31.998Z,8.72
2018-04-18T04:53:38.556Z,8.81
2018-04-18T04:54:44.838Z,8.86
2018-04-18T04:55:51.120Z,8.90
2018-04-18T04:56:57.341Z,8.92
2018-04-18T04:58:03.435Z,8.95
2018-04-18T04:59:09.748Z,8.88
2018-04-18T05:00:16.323Z,8.91
2018-04-18T05:01:23.849Z,8.94
2018-04-18T05:02:31.905Z,9.01
2018-04-18T05:03:38.172Z,9.09
2018-04-18T05:04:44.495Z,9.18
2018-04-18T05:05:50.451Z,9.26
2018-04-18T05:06:56.486Z,9.30
2018-04-18T05:08:02.711Z,9.31
2018-04-18T05:09:10.014Z,9.29
2018-04-18T05:10:16.281Z,9.29
2018-04-18T05:11:23.722Z,9.32
2018-04-18T05:12:29.923Z,9.42
2018-04-18T05:13:36.200Z,9.45
2018-04-18T05:14:42.532Z,9.36
2018-04-18T05:15:48.710Z,9.43
2018-04-18T05:16:56.079Z,9.55
2018-04-18T05:18:02.806Z,9.67
2018-04-18T05:19:09.110Z,9.77
2018-04-18T05:20:15.479Z,9.82
2018-04-18T05:21:21.863Z,9.89
2018-04-18T05:22:28.635Z,9.93
2018-04-18T05:23:34.949Z,9.94
2018-04-18T05:24:41.216Z,9.95
2018-04-18T05:25:47.466Z,9.95
2018-04-18T05:26:53.786Z,10.02
2018-04-18T05:28:00.115Z,10.09
2018-04-18T05:29:07.034Z,10.15
2018-04-18T05:30:13.094Z,10.14
2018-04-18T05:31:19.943Z,10.20
2018-04-18T05:32:26.182Z,10.27
2018-04-18T05:33:32.571Z,10.33
2018-04-18T05:34:38.802Z,10.40
2018-04-18T05:35:45.105Z,10.42
2018-04-18T05:36:51.407Z,10.41
2018-04-18T05:37:57.719Z,10.44
2018-04-18T05:39:03.596Z,10.55
2018-04-18T05:40:09.542Z,10.66
2018-04-18T05:41:15.747Z,10.76
2018-04-18T05:42:22.780Z,10.82
2018-04-18T05:43:29.885Z,10.78
2018-04-18T05:44:36.111Z,10.78
2018-04-18T05:45:42.480Z,10.78
2018-04-18T05:46:48.939Z,10.90
2018-04-18T05:47:55.275Z,11.03
2018-04-18T05:49:02.271Z,11.07
2018-04-18T05:50:08.578Z,11.17
2018-04-18T05:51:14.876Z,11.21
2018-04-18T05:52:21.090Z,11.28
2018-04-18T05:53:28.488Z,11.42
2018-04-18T05:54:36.943Z,11.47
2018-04-18T05:55:45.070Z,11.59
2018-04-18T05:56:52.273Z,11.71
2018-04-18T05:57:58.636Z,11.78
2018-04-18T05:59:04.699Z,11.81
2018-04-18T06:00:10.696Z,11.91
2018-04-18T06:01:17.019Z,12.06
2018-04-18T06:02:23.137Z,12.15
2018-04-18T06:03:29.490Z,12.25
2018-04-18T06:04:35.558Z,12.35
2018-04-18T06:05:41.930Z,12.42
2018-04-18T06:06:48.187Z,12.52
2018-04-18T06:07:54.193Z,12.58
2018-04-18T06:09:02.430Z,12.61
2018-04-18T06:10:07.979Z,12.54
2018-04-18T06:11:14.329Z,12.63
2018-04-18T06:12:20.879Z,12.71
2018-04-18T06:13:26.951Z,12.75
2018-04-18T06:14:33.156Z,12.82
2018-04-18T06:15:43.617Z,12.81
2018-04-18T06:16:49.801Z,12.79
2018-04-18T06:17:56.539Z,12.91
2018-04-18T06:19:02.843Z,12.91
2018-04-18T06:20:09.158Z,13.00
2018-04-18T06:21:15.690Z,13.09
2018-04-18T06:22:22.030Z,13.18
2018-04-18T06:23:28.297Z,13.25
2018-04-18T06:24:37.146Z,13.21
2018-04-18T06:25:44.564Z,13.18
2018-04-18T06:26:50.846Z,13.21
2018-04-18T06:27:57.171Z,13.29
2018-04-18T06:29:03.420Z,13.19
2018-04-18T06:30:09.756Z,13.22
2018-04-18T06:31:16.673Z,13.17
2018-04-18T06:32:22.892Z,13.18
2018-04-18T06:33:29.200Z,13.30
2018-04-18T06:34:35.406Z,13.39
2018-04-18T06:35:41.713Z,13.39
2018-04-18T06:36:54.977Z,13.45
2018-04-18T06:38:01.553Z,13.52
2018-04-18T06:39:07.839Z,13.59
2018-04-18T06:40:14.555Z,13.69
2018-04-18T06:41:20.519Z,13.70
2018-04-18T06:42:26.723Z,13.74
2018-04-18T06:43:33.212Z,13.87
2018-04-18T06:44:39.474Z,13.92
2018-04-18T06:45:45.781Z,13.87
2018-04-18T06:46:51.979Z,13.84
2018-04-18T06:47:58.436Z,13.83
2018-04-18T06:49:05.564Z,13.96
2018-04-18T06:50:11.912Z,14.01
2018-04-18T06:51:18.739Z,14.03
2018-04-18T06:52:26.039Z,14.03
2018-04-18T06:53:32.354Z,14.13
2018-04-18T06:54:39.262Z,14.17
2018-04-18T06:55:47.857Z,14.03
2018-04-18T06:56:54.562Z,13.96
2018-04-18T06:58:01.599Z,13.95
2018-04-18T06:59:07.653Z,14.00
2018-04-18T07:00:13.874Z,14.08
2018-04-18T07:01:20.220Z,14.16
2018-04-18T07:02:26.532Z,14.13
2018-04-18T07:03:32.991Z,14.07
2018-04-18T07:04:39.241Z,14.03
2018-04-18T07:05:45.535Z,14.00
2018-04-18T07:06:51.855Z,14.15
2018-04-18T07:07:57.848Z,14.22
2018-04-18T07:09:03.602Z,14.30
2018-04-18T07:10:09.686Z,14.34
2018-04-18T07:11:18.913Z,14.40
2018-04-18T07:12:26.232Z,14.49
2018-04-18T07:13:32.494Z,14.55
2018-04-18T07:14:39.012Z,14.54
2018-04-18T07:15:45.313Z,14.55
2018-04-18T07:16:51.615Z,14.52
2018-04-18T07:17:58.499Z,14.70
2018-04-18T07:19:05.398Z,14.62
2018-04-18T07:20:12.198Z,14.66
2018-04-18T07:21:19.138Z,14.70
2018-04-18T07:22:25.743Z,14.66
2018-04-18T07:23:32.208Z,14.70
2018-04-18T07:24:39.644Z,14.72
2018-04-18T07:25:45.932Z,14.70
2018-04-18T07:26:54.425Z,14.72
2018-04-18T07:28:02.909Z,14.89
2018-04-18T07:29:09.161Z,15.09
2018-04-18T07:30:15.320Z,15.18
2018-04-18T07:31:21.555Z,15.32
2018-04-18T07:32:27.859Z,15.38
2018-04-18T07:33:34.188Z,15.49
2018-04-18T07:34:40.470Z,15.47
2018-04-18T07:35:46.658Z,15.48
2018-04-18T07:36:52.914Z,15.48
2018-04-18T07:37:59.226Z,15.49
2018-04-18T07:39:04.870Z,15.60
2018-04-18T07:40:16.720Z,15.56
2018-04-18T07:41:22.708Z,15.58
2018-04-18T07:42:30.319Z,15.67
2018-04-18T07:43:37.567Z,15.80
2018-04-18T07:44:43.869Z,15.87
2018-04-18T07:45:50.138Z,15.90
2018-04-18T07:46:56.479Z,15.94
2018-04-18T07:48:02.789Z,16.03
2018-04-18T07:49:09.667Z,16.07
2018-04-18T07:50:15.947Z,16.15
2018-04-18T07:51:22.204Z,16.07
2018-04-18T07:52:28.527Z,16.04
2018-04-18T07:53:34.909Z,15.97
2018-04-18T07:54:41.195Z,16.18
2018-04-18T07:55:48.062Z,16.29
2018-04-18T07:56:54.252Z,16.32
2018-04-18T07:58:01.317Z,16.41
2018-04-18T07:59:08.194Z,16.47
2018-04-18T08:00:14.955Z,16.54
2018-04-18T08:01:21.174Z,16.61
2018-04-18T08:02:27.526Z,16.67
2018-04-18T08:03:33.838Z,16.76
2018-04-18T08:04:40.151Z,16.78
2018-04-18T08:05:46.436Z,16.73
2018-04-18T08:06:52.783Z,16.78
2018-04-18T08:07:59.491Z,16.91
2018-04-18T08:09:05.110Z,16.97
2018-04-18T08:10:11.108Z,17.08
2018-04-18T08:11:17.404Z,17.23
2018-04-18T08:12:23.683Z,17.45
2018-04-18T08:13:30.014Z,17.51
2018-04-18T08:14:44.218Z,17.48
2018-04-18T08:15:51.492Z,17.65
2018-04-18T08:16:57.694Z,17.82
2018-04-18T08:18:03.933Z,17.73
2018-04-18T08:19:10.195Z,17.66
2018-04-18T08:20:16.525Z,17.79
2018-04-18T08:21:22.842Z,17.99
2018-04-18T08:22:29.127Z,18.09
2018-04-18T08:23:35.324Z,18.07
2018-04-18T08:24:42.189Z,17.90
2018-04-18T08:25:48.469Z,17.99
2018-04-18T08:26:54.963Z,18.22
2018-04-18T08:28:01.260Z,18.28
2018-04-18T08:29:07.481Z,18.25
2018-04-18T08:30:13.826Z,18.32
2018-04-18T08:31:20.020Z,18.44
2018-04-18T08:32:26.318Z,18.43
2018-04-18T08:33:32.892Z,18.40
2018-04-18T08:34:39.165Z,18.62
2018-04-18T08:35:45.459Z,18.75
2018-04-18T08:36:52.020Z,18.90
2018-04-18T08:37:58.293Z,19.15
2018-04-18T08:39:03.664Z,19.31
2018-04-18T08:40:09.607Z,19.38
2018-04-18T08:41:15.926Z,19.37
2018-04-18T08:42:26.537Z,19.50
2018-04-18T08:43:38.816Z,19.63
2018-04-18T08:44:45.707Z,19.38
2018-04-18T08:45:52.243Z,19.33
2018-04-18T08:46:58.622Z,19.21
2018-04-18T08:48:04.917Z,19.27
2018-04-18T08:49:11.009Z,19.34
2018-04-18T08:50:17.280Z,19.62
2018-04-18T08:51:23.543Z,19.76
2018-04-18T08:52:30.779Z,19.83
2018-04-18T08:53:37.067Z,19.99
2018-04-18T08:54:43.431Z,20.03
2018-04-18T08:55:49.755Z,20.03
2018-04-18T08:56:55.794Z,20.05
2018-04-18T08:58:02.190Z,19.81
2018-04-18T08:59:08.750Z,19.82
2018-04-18T09:00:15.660Z,19.98
2018-04-18T09:01:22.026Z,20.10
2018-04-18T09:02:28.926Z,19.79
2018-04-18T09:03:35.258Z,19.60
2018-04-18T09:04:42.356Z,19.45
2018-04-18T09:05:48.171Z,19.39
2018-04-18T09:06:55.239Z,19.54
2018-04-18T09:08:01.672Z,19.71
2018-04-18T09:09:08.015Z,19.99
2018-04-18T09:10:14.397Z,20.11
2018-04-18T09:11:20.674Z,19.96
2018-04-18T09:12:27.286Z,20.10
2018-04-18T09:13:33.571Z,20.03
2018-04-18T09:14:40.250Z,20.25
2018-04-18T09:15:47.317Z,20.51
2018-04-18T09:16:53.855Z,20.75
2018-04-18T09:18:00.175Z,20.85
2018-04-18T09:19:13.807Z,20.81
2018-04-18T09:20:20.015Z,20.62
2018-04-18T09:21:26.345Z,20.63
2018-04-18T09:22:32.671Z,20.64
2018-04-18T09:23:39.024Z,20.64
2018-04-18T09:24:45.255Z,20.66
2018-04-18T09:25:51.531Z,20.86
2018-04-18T09:26:57.810Z,21.03
2018-04-18T09:28:04.524Z,21.11
2018-04-18T09:29:11.202Z,21.13
2018-04-18T09:30:17.537Z,20.99
2018-04-18T09:31:23.933Z,20.93
2018-04-18T09:32:33.102Z,20.89
2018-04-18T09:33:39.592Z,20.82
2018-04-18T09:34:45.588Z,20.87
2018-04-18T09:35:53.966Z,20.68
2018-04-18T09:37:00.011Z,20.66
2018-04-18T09:38:06.027Z,20.83
2018-04-18T09:39:12.227Z,20.74
2018-04-18T09:40:18.616Z,20.80
2018-04-18T09:41:24.902Z,20.76
2018-04-18T09:42:32.003Z,20.66
2018-04-18T09:43:38.218Z,20.49
2018-04-18T09:44:48.190Z,20.67
2018-04-18T09:45:55.707Z,20.72
2018-04-18T09:47:04.490Z,20.83
2018-04-18T09:48:11.858Z,20.72
2018-04-18T09:49:18.376Z,20.78
2018-04-18T09:50:24.812Z,20.85
2018-04-18T09:51:32.023Z,21.12
2018-04-18T09:52:39.907Z,21.45
2018-04-18T09:53:46.691Z,21.64
2018-04-18T09:54:53.036Z,21.50
2018-04-18T09:55:59.772Z,21.48
2018-04-18T09:57:06.403Z,21.36
2018-04-18T09:58:12.693Z,21.36
2018-04-18T09:59:19.085Z,21.27
2018-04-18T10:00:30.761Z,21.22
2018-04-18T10:01:43.040Z,21.22
2018-04-18T10:02:54.384Z,21.33
2018-04-18T10:04:06.288Z,21.47
2018-04-18T10:05:13.386Z,21.59
2018-04-18T10:06:19.783Z,21.72
2018-04-18T10:07:26.059Z,21.75
2018-04-18T10:08:32.483Z,21.90
2018-04-18T10:09:38.436Z,21.73
2018-04-18T10:10:44.704Z,21.64
2018-04-18T10:11:51.034Z,21.65
2018-04-18T10:12:58.714Z,21.76
2018-04-18T10:14:05.743Z,21.87
2018-04-18T10:15:11.817Z,21.79
2018-04-18T10:16:18.059Z,21.83
2018-04-18T10:17:24.507Z,21.99
2018-04-18T10:18:30.756Z,22.31
2018-04-18T10:19:37.230Z,22.44
2018-04-18T10:20:43.466Z,22.29
2018-04-18T10:21:49.756Z,22.35
2018-04-18T10:22:55.886Z,22.38
2018-04-18T10:24:02.427Z,22.41
2018-04-18T10:25:08.749Z,22.38
2018-04-18T10:26:19.514Z,22.52
2018-04-18T10:27:28.551Z,22.67
2018-04-18T10:28:36.720Z,22.80
2018-04-18T10:29:44.251Z,22.98
2018-04-18T10:30:51.236Z,22.98
2018-04-18T10:31:58.038Z,22.78
2018-04-18T10:33:04.466Z,22.65
2018-04-18T10:34:10.979Z,22.57
2018-04-18T10:35:17.295Z,22.60
2018-04-18T10:36:23.382Z,22.79
2018-04-18T10:37:29.575Z,22.85
2018-04-18T10:38:35.808Z,22.85
2018-04-18T10:39:41.893Z,22.89
2018-04-18T10:40:48.103Z,22.94
2018-04-18T10:41:55.791Z,23.08
2018-04-18T10:43:02.916Z,22.85
2018-04-18T10:44:09.214Z,22.68
2018-04-18T10:45:15.521Z,22.63
2018-04-18T10:46:22.460Z,22.65
2018-04-18T10:47:33.923Z,22.36
2018-04-18T10:48:43.676Z,22.30
2018-04-18T10:49:50.704Z,22.37
2018-04-18T10:50:57.978Z,22.37
2018-04-18T10:52:05.111Z,22.56
2018-04-18T10:53:12.257Z,22.71
2018-04-18T10:54:19.479Z,22.89
2018-04-18T10:55:29.258Z,22.92
2018-04-18T10:56:36.198Z,22.90
2018-04-18T10:57:43.329Z,22.86
2018-04-18T10:58:50.779Z,22.85
2018-04-18T10:59:58.718Z,22.85
2018-04-18T11:01:06.043Z,22.86
2018-04-18T11:02:14.154Z,23.02
2018-04-18T11:03:20.605Z,23.22
2018-04-18T11:04:26.919Z,23.28
2018-04-18T11:05:33.544Z,23.25
2018-04-18T11:06:42.183Z,23.41
2018-04-18T11:07:49.782Z,23.43
2018-04-18T11:08:57.718Z,23.50
2018-04-18T11:10:04.764Z,23.43
2018-04-18T11:11:12.529Z,23.38
2018-04-18T11:12:19.869Z,23.38
2018-04-18T11:13:26.769Z,23.37
2018-04-18T11:14:33.968Z,23.40
2018-04-18T11:15:41.613Z,23.44
2018-04-18T11:16:48.104Z,23.59
2018-04-18T11:17:56.491Z,23.62
2018-04-18T11:19:03.837Z,23.51
2018-04-18T11:20:12.479Z,23.60
2018-04-18T11:21:20.801Z,23.68
2018-04-18T11:22:27.233Z,23.69
2018-04-18T11:23:33.607Z,23.74
2018-04-18T11:24:40.484Z,23.70
2018-04-18T11:25:49.784Z,23.71
2018-04-18T11:26:56.924Z,23.76
2018-04-18T11:28:04.091Z,23.73
2018-04-18T11:29:11.396Z,23.68
2018-04-18T11:30:20.054Z,23.79
2018-04-18T11:31:27.176Z,23.69
2018-04-18T11:32:34.461Z,23.55
2018-04-18T11:33:40.628Z,23.43
2018-04-18T11:34:47.872Z,23.41
2018-04-18T11:35:54.268Z,23.45
2018-04-18T11:37:01.985Z,23.41
2018-04-18T11:38:09.363Z,23.30
2018-04-18T11:39:16.780Z,23.10
2018-04-18T11:40:25.486Z,23.04
2018-04-18T11:41:31.965Z,23.05
2018-04-18T11:42:38.903Z,23.15
2018-04-18T11:43:45.881Z,23.24
2018-04-18T11:44:51.845Z,23.23
2018-04-18T11:45:58.087Z,23.39
2018-04-18T11:47:04.993Z,23.17
2018-04-18T11:48:12.751Z,23.16
2018-04-18T11:49:19.934Z,23.34
2018-04-18T11:50:27.556Z,23.47
2018-04-18T11:51:34.755Z,23.30
2018-04-18T11:52:42.109Z,23.29
2018-04-18T11:53:48.736Z,23.26
2018-04-18T11:54:56.406Z,23.35
2018-04-18T11:56:02.879Z,23.47
2018-04-18T11:57:09.813Z,23.43
2018-04-18T11:58:17.177Z,23.46
2018-04-18T11:59:24.484Z,23.58
2018-04-18T12:00:31.035Z,23.63
2018-04-18T12:01:38.067Z,23.65
2018-04-18T12:02:45.913Z,23.69
2018-04-18T12:03:52.840Z,23.69
2018-04-18T12:04:59.663Z,23.60
2018-04-18T12:06:05.602Z,23.60
2018-04-18T12:07:12.689Z,23.43
2018-04-18T12:08:19.284Z,23.39
2018-04-18T12:09:25.610Z,23.42
2018-04-18T12:10:32.038Z,23.33
2018-04-18T12:11:44.344Z,23.35
2018-04-18T12:12:52.831Z,23.30
2018-04-18T12:14:00.835Z,23.43
2018-04-18T12:15:08.851Z,23.56
2018-04-18T12:16:15.356Z,23.54
2018-04-18T12:17:23.137Z,23.53
2018-04-18T12:18:29.395Z,23.49
2018-04-18T12:19:35.687Z,23.54
2018-04-18T12:20:42.003Z,23.55
2018-04-18T12:21:53.551Z,23.67
2018-04-18T12:22:59.867Z,23.45
2018-04-18T12:24:05.858Z,23.63
2018-04-18T12:25:12.191Z,23.81
2018-04-18T12:26:18.487Z,23.91
2018-04-18T12:27:24.761Z,23.91
2018-04-18T12:28:30.800Z,23.94
2018-04-18T12:29:37.102Z,23.91
2018-04-18T12:30:43.387Z,23.89
2018-04-18T12:31:49.612Z,23.79
2018-04-18T12:32:57.134Z,23.87
2018-04-18T12:34:03.044Z,24.00
2018-04-18T12:35:09.044Z,23.92
2018-04-18T12:36:15.298Z,23.93
2018-04-18T12:37:22.235Z,23.97
2018-04-18T12:38:28.519Z,24.23
2018-04-18T12:39:34.724Z,24.31
2018-04-18T12:40:40.791Z,24.22
2018-04-18T12:41:46.650Z,24.32
2018-04-18T12:42:52.685Z,24.52
2018-04-18T12:43:58.422Z,24.53
2018-04-18T12:45:04.051Z,24.60
2018-04-18T12:46:15.557Z,24.51
2018-04-18T12:47:21.954Z,24.51
2018-04-18T12:48:31.135Z,24.37
2018-04-18T12:49:37.293Z,24.14
2018-04-18T12:50:43.550Z,24.17
2018-04-18T12:51:49.515Z,24.13
2018-04-18T12:52:57.070Z,24.10
2018-04-18T12:54:03.109Z,24.24
2018-04-18T12:55:09.093Z,24.27
2018-04-18T12:56:15.339Z,24.14
2018-04-18T12:57:21.523Z,24.08
2018-04-18T12:58:27.591Z,24.11
2018-04-18T12:59:33.742Z,24.25
2018-04-18T13:00:39.947Z,24.34
2018-04-18T13:01:45.867Z,24.38
2018-04-18T13:02:51.755Z,24.49
2018-04-18T13:03:59.344Z,24.63
2018-04-18T13:05:06.824Z,24.65
2018-04-18T13:06:12.886Z,24.76
2018-04-18T13:07:19.250Z,24.87
2018-04-18T13:08:25.186Z,24.89
2018-04-18T13:09:31.726Z,24.82
2018-04-18T13:10:38.353Z,24.67
2018-04-18T13:11:44.501Z,24.75
2018-04-18T13:12:50.406Z,24.61
2018-04-18T13:13:58.397Z,24.68
2018-04-18T13:15:04.643Z,24.60
2018-04-18T13:16:12.106Z,24.63
2018-04-18T13:17:18.039Z,24.61
2018-04-18T13:18:23.834Z,24.40
2018-04-18T13:19:30.070Z,24.21
2018-04-18T13:20:37.320Z,24.19
2018-04-18T13:21:43.303Z,24.16
2018-04-18T13:22:49.493Z,24.12
2018-04-18T13:23:55.815Z,24.17
2018-04-18T13:25:01.777Z,24.29
2018-04-18T13:26:07.731Z,24.42
2018-04-18T13:27:13.680Z,24.51
2018-04-18T13:28:20.261Z,24.68
2018-04-18T13:29:26.366Z,24.47
2018-04-18T13:30:32.870Z,24.58
2018-04-18T13:31:38.747Z,24.61
2018-04-18T13:32:44.638Z,24.75
2018-04-18T13:33:50.687Z,24.80
2018-04-18T13:34:58.686Z,24.67
2018-04-18T13:36:05.946Z,24.49
2018-04-18T13:37:12.784Z,24.19
2018-04-18T13:38:18.555Z,24.41
2018-04-18T13:39:25.144Z,24.57
2018-04-18T13:40:31.388Z,24.38
2018-04-18T13:41:37.311Z,24.40
2018-04-18T13:42:43.359Z,24.36
2018-04-18T13:43:50.228Z,24.32
2018-04-18T13:44:55.907Z,24.40
2018-04-18T13:46:01.796Z,24.64
2018-04-18T13:47:07.843Z,24.68
2018-04-18T13:48:13.723Z,24.91
2018-04-18T13:49:19.707Z,24.96
2018-04-18T13:50:25.909Z,24.89
2018-04-18T13:51:31.655Z,24.92
2018-04-18T13:52:38.056Z,25.08
2018-04-18T13:53:44.322Z,25.21
2018-04-18T13:54:50.586Z,25.28
2018-04-18T13:56:00.913Z,25.12
2018-04-18T13:57:08.848Z,25.02
2018-04-18T13:58:14.773Z,25.10
2018-04-18T13:59:20.603Z,25.02
2018-04-18T14:00:27.565Z,25.07
2018-04-18T14:01:33.850Z,24.99
2018-04-18T14:02:39.882Z,25.05
2018-04-18T14:03:46.252Z,25.06
2018-04-18T14:04:52.704Z,25.15
2018-04-18T14:05:58.867Z,24.99
2018-04-18T14:07:05.296Z,24.83
2018-04-18T14:08:11.266Z,24.67
2018-04-18T14:09:17.969Z,24.50
2018-04-18T14:10:24.869Z,24.57
2018-04-18T14:11:32.180Z,24.62
2018-04-18T14:12:38.986Z,24.65
2018-04-18T14:13:44.868Z,24.78
2018-04-18T14:14:50.535Z,25.03
2018-04-18T14:15:56.495Z,25.17
2018-04-18T14:17:02.846Z,25.24
2018-04-18T14:18:09.011Z,25.29
2018-04-18T14:19:15.710Z,24.88
2018-04-18T14:20:21.740Z,24.58
2018-04-18T14:21:27.717Z,24.43
2018-04-18T14:22:34.021Z,24.35
2018-04-18T14:23:39.911Z,24.57
2018-04-18T14:24:45.980Z,24.62
2018-04-18T14:25:51.976Z,24.75
2018-04-18T14:26:58.051Z,24.94
2018-04-18T14:28:04.084Z,24.80
2018-04-18T14:29:10.613Z,24.76
2018-04-18T14:30:16.621Z,24.68
2018-04-18T14:31:23.098Z,24.74
2018-04-18T14:32:29.424Z,24.87